sensor_id;sensor_type;location;lat;lon;timestamp;P1;durP1;ratioP1;P2;durP2;ratioP2
24483;SDS011;12643;51.620;7.548;2023-03-31T00:00:52;4.35;;;1.60;;
24483;SDS011;12643;51.620;7.548;2023-03-31T00:03:22;10.30;;;2.60;;
24483;SDS011;12643;51.620;7.548;2023-03-31T00:05:54;5.32;;;1.85;;
24483;SDS011;12643;51.620;7.548;2023-03-31T00:08:22;5.82;;;1.77;;
24483;SDS011;12643;51.620;7.548;2023-03-31T00:10:58;7.95;;;1.65;;
24483;SDS011;12643;51.620;7.548;2023-03-31T00:13:27;10.88;;;2.63;;
24483;SDS011;12643;51.620;7.548;2023-03-31T00:15:57;6.90;;;1.38;;
24483;SDS011;12643;51.620;7.548;2023-03-31T00:18:27;5.50;;;1.88;;
24483;SDS011;12643;51.620;7.548;2023-03-31T00:20:58;7.28;;;2.03;;
24483;SDS011;12643;51.620;7.548;2023-03-31T00:23:33;7.22;;;2.00;;
24483;SDS011;12643;51.620;7.548;2023-03-31T00:26:03;7.03;;;2.15;;
24483;SDS011;12643;51.620;7.548;2023-03-31T00:28:31;10.45;;;2.60;;
24483;SDS011;12643;51.620;7.548;2023-03-31T00:30:59;9.77;;;2.00;;
24483;SDS011;12643;51.620;7.548;2023-03-31T00:33:28;7.18;;;1.73;;
24483;SDS011;12643;51.620;7.548;2023-03-31T00:35:56;6.50;;;1.48;;
24483;SDS011;12643;51.620;7.548;2023-03-31T00:38:26;7.00;;;1.92;;
24483;SDS011;12643;51.620;7.548;2023-03-31T00:40:55;4.40;;;1.80;;
24483;SDS011;12643;51.620;7.548;2023-03-31T00:43:27;8.77;;;1.55;;
24483;SDS011;12643;51.620;7.548;2023-03-31T00:45:59;6.57;;;1.98;;
24483;SDS011;12643;51.620;7.548;2023-03-31T00:48:32;6.43;;;2.42;;
24483;SDS011;12643;51.620;7.548;2023-03-31T00:51:03;11.18;;;2.03;;
24483;SDS011;12643;51.620;7.548;2023-03-31T00:53:32;5.10;;;1.60;;
24483;SDS011;12643;51.620;7.548;2023-03-31T00:56:04;6.10;;;1.83;;
24483;SDS011;12643;51.620;7.548;2023-03-31T00:58:40;7.97;;;1.38;;
24483;SDS011;12643;51.620;7.548;2023-03-31T01:01:12;7.43;;;1.85;;
24483;SDS011;12643;51.620;7.548;2023-03-31T01:03:43;6.10;;;1.70;;
24483;SDS011;12643;51.620;7.548;2023-03-31T01:06:13;5.75;;;1.83;;
24483;SDS011;12643;51.620;7.548;2023-03-31T01:08:44;7.20;;;1.70;;
24483;SDS011;12643;51.620;7.548;2023-03-31T01:11:15;9.50;;;1.65;;
24483;SDS011;12643;51.620;7.548;2023-03-31T01:13:47;6.68;;;1.50;;
24483;SDS011;12643;51.620;7.548;2023-03-31T01:16:17;7.00;;;1.83;;
24483;SDS011;12643;51.620;7.548;2023-03-31T01:18:45;9.68;;;1.80;;
24483;SDS011;12643;51.620;7.548;2023-03-31T01:24:29;5.00;;;1.88;;
24483;SDS011;12643;51.620;7.548;2023-03-31T01:27:42;6.35;;;1.63;;
24483;SDS011;12643;51.620;7.548;2023-03-31T01:30:31;7.80;;;1.52;;
24483;SDS011;12643;51.620;7.548;2023-03-31T01:33:30;5.00;;;1.42;;
24483;SDS011;12643;51.620;7.548;2023-03-31T01:42:30;9.43;;;2.15;;
24483;SDS011;12643;51.620;7.548;2023-03-31T01:45:06;8.30;;;1.85;;
24483;SDS011;12643;51.620;7.548;2023-03-31T01:47:43;10.07;;;2.00;;
24483;SDS011;12643;51.620;7.548;2023-03-31T01:50:17;10.52;;;1.77;;
24483;SDS011;12643;51.620;7.548;2023-03-31T01:52:51;9.00;;;2.30;;
24483;SDS011;12643;51.620;7.548;2023-03-31T01:55:28;6.85;;;1.58;;
24483;SDS011;12643;51.620;7.548;2023-03-31T01:58:04;6.60;;;1.90;;
24483;SDS011;12643;51.620;7.548;2023-03-31T02:00:37;6.65;;;1.67;;
24483;SDS011;12643;51.620;7.548;2023-03-31T02:03:13;7.50;;;1.70;;
24483;SDS011;12643;51.620;7.548;2023-03-31T02:05:47;7.90;;;1.88;;
24483;SDS011;12643;51.620;7.548;2023-03-31T02:08:19;8.30;;;2.15;;
24483;SDS011;12643;51.620;7.548;2023-03-31T02:10:49;8.25;;;1.92;;
24483;SDS011;12643;51.620;7.548;2023-03-31T02:13:20;8.60;;;2.22;;
24483;SDS011;12643;51.620;7.548;2023-03-31T02:15:52;12.10;;;2.00;;
24483;SDS011;12643;51.620;7.548;2023-03-31T02:18:24;11.27;;;1.92;;
24483;SDS011;12643;51.620;7.548;2023-03-31T02:20:55;5.88;;;2.08;;
24483;SDS011;12643;51.620;7.548;2023-03-31T02:23:25;7.47;;;1.98;;
24483;SDS011;12643;51.620;7.548;2023-03-31T02:28:28;7.50;;;1.83;;
24483;SDS011;12643;51.620;7.548;2023-03-31T02:31:01;12.20;;;2.38;;
24483;SDS011;12643;51.620;7.548;2023-03-31T02:33:37;7.50;;;2.05;;
24483;SDS011;12643;51.620;7.548;2023-03-31T02:36:05;5.88;;;1.73;;
24483;SDS011;12643;51.620;7.548;2023-03-31T02:38:38;8.68;;;2.88;;
24483;SDS011;12643;51.620;7.548;2023-03-31T02:41:13;7.47;;;2.25;;
24483;SDS011;12643;51.620;7.548;2023-03-31T02:43:44;12.30;;;2.13;;
24483;SDS011;12643;51.620;7.548;2023-03-31T02:46:12;7.07;;;1.90;;
24483;SDS011;12643;51.620;7.548;2023-03-31T02:48:40;6.80;;;2.13;;
24483;SDS011;12643;51.620;7.548;2023-03-31T02:51:19;5.55;;;2.13;;
24483;SDS011;12643;51.620;7.548;2023-03-31T02:54:17;8.52;;;2.05;;
24483;SDS011;12643;51.620;7.548;2023-03-31T02:57:02;5.63;;;1.90;;
24483;SDS011;12643;51.620;7.548;2023-03-31T02:59:50;9.75;;;1.90;;
24483;SDS011;12643;51.620;7.548;2023-03-31T03:02:28;9.32;;;2.58;;
24483;SDS011;12643;51.620;7.548;2023-03-31T03:05:09;9.05;;;2.30;;
24483;SDS011;12643;51.620;7.548;2023-03-31T03:07:55;5.65;;;1.88;;
24483;SDS011;12643;51.620;7.548;2023-03-31T03:10:34;9.40;;;2.30;;
24483;SDS011;12643;51.620;7.548;2023-03-31T03:13:13;6.60;;;1.80;;
24483;SDS011;12643;51.620;7.548;2023-03-31T03:15:48;8.13;;;2.17;;
24483;SDS011;12643;51.620;7.548;2023-03-31T03:18:21;14.40;;;2.83;;
24483;SDS011;12643;51.620;7.548;2023-03-31T03:20:49;12.13;;;2.42;;
24483;SDS011;12643;51.620;7.548;2023-03-31T03:23:17;7.78;;;2.20;;
24483;SDS011;12643;51.620;7.548;2023-03-31T03:25:47;6.35;;;1.90;;
24483;SDS011;12643;51.620;7.548;2023-03-31T03:28:16;9.10;;;2.40;;
24483;SDS011;12643;51.620;7.548;2023-03-31T03:30:44;8.02;;;2.10;;
24483;SDS011;12643;51.620;7.548;2023-03-31T03:33:14;8.32;;;2.00;;
24483;SDS011;12643;51.620;7.548;2023-03-31T03:35:42;11.30;;;2.17;;
24483;SDS011;12643;51.620;7.548;2023-03-31T03:38:10;7.93;;;2.03;;
24483;SDS011;12643;51.620;7.548;2023-03-31T03:40:38;8.80;;;2.30;;
24483;SDS011;12643;51.620;7.548;2023-03-31T03:43:07;11.45;;;2.33;;
24483;SDS011;12643;51.620;7.548;2023-03-31T03:45:35;15.07;;;2.70;;
24483;SDS011;12643;51.620;7.548;2023-03-31T03:48:03;10.02;;;2.20;;
24483;SDS011;12643;51.620;7.548;2023-03-31T03:53:06;9.82;;;2.40;;
24483;SDS011;12643;51.620;7.548;2023-03-31T03:55:34;12.25;;;2.55;;
24483;SDS011;12643;51.620;7.548;2023-03-31T03:58:02;12.00;;;2.88;;
24483;SDS011;12643;51.620;7.548;2023-03-31T04:00:30;7.05;;;2.25;;
24483;SDS011;12643;51.620;7.548;2023-03-31T04:03:00;12.88;;;3.08;;
24483;SDS011;12643;51.620;7.548;2023-03-31T04:05:28;7.95;;;2.13;;
24483;SDS011;12643;51.620;7.548;2023-03-31T04:07:58;11.15;;;2.67;;
24483;SDS011;12643;51.620;7.548;2023-03-31T04:10:26;9.68;;;2.50;;
24483;SDS011;12643;51.620;7.548;2023-03-31T04:12:54;12.07;;;2.75;;
24483;SDS011;12643;51.620;7.548;2023-03-31T04:15:22;10.80;;;2.60;;
24483;SDS011;12643;51.620;7.548;2023-03-31T04:17:50;9.30;;;1.98;;
24483;SDS011;12643;51.620;7.548;2023-03-31T04:20:19;10.57;;;2.28;;
24483;SDS011;12643;51.620;7.548;2023-03-31T04:22:52;11.55;;;2.45;;
24483;SDS011;12643;51.620;7.548;2023-03-31T04:25:21;7.78;;;2.00;;
24483;SDS011;12643;51.620;7.548;2023-03-31T04:27:50;8.48;;;2.10;;
24483;SDS011;12643;51.620;7.548;2023-03-31T04:30:20;11.07;;;2.30;;
24483;SDS011;12643;51.620;7.548;2023-03-31T04:32:49;10.98;;;2.05;;
24483;SDS011;12643;51.620;7.548;2023-03-31T04:35:17;6.80;;;1.98;;
24483;SDS011;12643;51.620;7.548;2023-03-31T04:37:46;7.85;;;1.67;;
24483;SDS011;12643;51.620;7.548;2023-03-31T04:40:28;11.55;;;2.67;;
24483;SDS011;12643;51.620;7.548;2023-03-31T04:42:56;8.93;;;2.05;;
24483;SDS011;12643;51.620;7.548;2023-03-31T04:45:25;6.95;;;2.17;;
24483;SDS011;12643;51.620;7.548;2023-03-31T04:47:55;8.25;;;1.95;;
24483;SDS011;12643;51.620;7.548;2023-03-31T04:50:23;12.05;;;2.35;;
24483;SDS011;12643;51.620;7.548;2023-03-31T04:52:51;10.35;;;2.00;;
24483;SDS011;12643;51.620;7.548;2023-03-31T04:55:19;8.75;;;1.95;;
24483;SDS011;12643;51.620;7.548;2023-03-31T04:57:48;3.92;;;1.75;;
24483;SDS011;12643;51.620;7.548;2023-03-31T05:00:17;8.15;;;2.05;;
24483;SDS011;12643;51.620;7.548;2023-03-31T05:02:46;14.57;;;2.60;;
24483;SDS011;12643;51.620;7.548;2023-03-31T05:05:14;8.63;;;2.55;;
24483;SDS011;12643;51.620;7.548;2023-03-31T05:07:42;8.38;;;2.17;;
24483;SDS011;12643;51.620;7.548;2023-03-31T05:10:10;11.40;;;2.22;;
24483;SDS011;12643;51.620;7.548;2023-03-31T05:12:38;6.93;;;2.38;;
24483;SDS011;12643;51.620;7.548;2023-03-31T05:15:09;10.63;;;2.05;;
24483;SDS011;12643;51.620;7.548;2023-03-31T05:17:37;10.13;;;2.10;;
24483;SDS011;12643;51.620;7.548;2023-03-31T05:20:05;8.75;;;1.85;;
24483;SDS011;12643;51.620;7.548;2023-03-31T05:22:34;10.30;;;2.00;;
24483;SDS011;12643;51.620;7.548;2023-03-31T05:25:04;10.27;;;2.40;;
24483;SDS011;12643;51.620;7.548;2023-03-31T05:27:33;13.10;;;2.10;;
24483;SDS011;12643;51.620;7.548;2023-03-31T05:30:02;10.23;;;2.33;;
24483;SDS011;12643;51.620;7.548;2023-03-31T05:32:33;9.05;;;2.47;;
24483;SDS011;12643;51.620;7.548;2023-03-31T05:35:01;6.90;;;2.17;;
24483;SDS011;12643;51.620;7.548;2023-03-31T05:37:29;9.80;;;2.28;;
24483;SDS011;12643;51.620;7.548;2023-03-31T05:39:58;8.38;;;2.10;;
24483;SDS011;12643;51.620;7.548;2023-03-31T05:42:26;9.90;;;2.25;;
24483;SDS011;12643;51.620;7.548;2023-03-31T05:44:55;11.20;;;2.38;;
24483;SDS011;12643;51.620;7.548;2023-03-31T05:47:23;8.45;;;2.20;;
24483;SDS011;12643;51.620;7.548;2023-03-31T05:49:53;7.90;;;2.20;;
24483;SDS011;12643;51.620;7.548;2023-03-31T05:52:27;7.32;;;2.15;;
24483;SDS011;12643;51.620;7.548;2023-03-31T05:54:55;9.65;;;2.28;;
24483;SDS011;12643;51.620;7.548;2023-03-31T05:57:23;10.38;;;2.25;;
24483;SDS011;12643;51.620;7.548;2023-03-31T05:59:52;5.47;;;1.92;;
24483;SDS011;12643;51.620;7.548;2023-03-31T06:02:25;7.15;;;1.98;;
24483;SDS011;12643;51.620;7.548;2023-03-31T06:04:54;9.95;;;1.83;;
24483;SDS011;12643;51.620;7.548;2023-03-31T06:07:22;10.38;;;2.35;;
24483;SDS011;12643;51.620;7.548;2023-03-31T06:09:50;8.43;;;2.28;;
24483;SDS011;12643;51.620;7.548;2023-03-31T06:12:19;13.30;;;2.78;;
24483;SDS011;12643;51.620;7.548;2023-03-31T06:14:49;9.25;;;2.25;;
24483;SDS011;12643;51.620;7.548;2023-03-31T06:17:17;6.45;;;1.83;;
24483;SDS011;12643;51.620;7.548;2023-03-31T06:19:45;8.20;;;2.00;;
24483;SDS011;12643;51.620;7.548;2023-03-31T06:22:15;11.38;;;2.20;;
24483;SDS011;12643;51.620;7.548;2023-03-31T06:24:43;11.88;;;1.67;;
24483;SDS011;12643;51.620;7.548;2023-03-31T06:27:10;3.90;;;1.60;;
24483;SDS011;12643;51.620;7.548;2023-03-31T06:29:39;10.07;;;6.03;;
24483;SDS011;12643;51.620;7.548;2023-03-31T06:32:09;4.78;;;1.80;;
24483;SDS011;12643;51.620;7.548;2023-03-31T06:34:39;6.15;;;1.80;;
24483;SDS011;12643;51.620;7.548;2023-03-31T06:39:44;6.88;;;1.50;;
24483;SDS011;12643;51.620;7.548;2023-03-31T06:42:13;5.78;;;1.48;;
24483;SDS011;12643;51.620;7.548;2023-03-31T06:44:41;7.88;;;1.65;;
24483;SDS011;12643;51.620;7.548;2023-03-31T06:47:09;7.30;;;1.60;;
24483;SDS011;12643;51.620;7.548;2023-03-31T06:49:37;4.18;;;1.50;;
24483;SDS011;12643;51.620;7.548;2023-03-31T06:52:05;4.25;;;1.50;;
24483;SDS011;12643;51.620;7.548;2023-03-31T06:54:34;4.05;;;1.30;;
24483;SDS011;12643;51.620;7.548;2023-03-31T06:57:03;5.93;;;1.23;;
24483;SDS011;12643;51.620;7.548;2023-03-31T06:59:30;6.95;;;1.88;;
24483;SDS011;12643;51.620;7.548;2023-03-31T07:01:58;4.88;;;1.55;;
24483;SDS011;12643;51.620;7.548;2023-03-31T07:04:26;4.70;;;1.38;;
24483;SDS011;12643;51.620;7.548;2023-03-31T07:06:54;4.28;;;1.52;;
24483;SDS011;12643;51.620;7.548;2023-03-31T07:09:23;2.88;;;1.25;;
24483;SDS011;12643;51.620;7.548;2023-03-31T07:11:56;4.35;;;1.58;;
24483;SDS011;12643;51.620;7.548;2023-03-31T07:14:24;5.28;;;1.33;;
24483;SDS011;12643;51.620;7.548;2023-03-31T07:16:52;6.25;;;1.60;;
24483;SDS011;12643;51.620;7.548;2023-03-31T07:19:20;6.88;;;1.60;;
24483;SDS011;12643;51.620;7.548;2023-03-31T07:21:48;8.10;;;1.67;;
24483;SDS011;12643;51.620;7.548;2023-03-31T07:24:18;7.03;;;1.63;;
24483;SDS011;12643;51.620;7.548;2023-03-31T07:26:46;5.03;;;1.45;;
24483;SDS011;12643;51.620;7.548;2023-03-31T07:29:16;5.43;;;1.35;;
24483;SDS011;12643;51.620;7.548;2023-03-31T07:31:45;5.13;;;1.55;;
24483;SDS011;12643;51.620;7.548;2023-03-31T07:34:13;5.78;;;1.67;;
24483;SDS011;12643;51.620;7.548;2023-03-31T07:36:42;2.90;;;1.30;;
24483;SDS011;12643;51.620;7.548;2023-03-31T07:39:10;4.93;;;1.23;;
24483;SDS011;12643;51.620;7.548;2023-03-31T07:41:38;6.80;;;1.75;;
24483;SDS011;12643;51.620;7.548;2023-03-31T07:44:07;5.03;;;1.63;;
24483;SDS011;12643;51.620;7.548;2023-03-31T07:46:38;4.10;;;1.40;;
24483;SDS011;12643;51.620;7.548;2023-03-31T07:49:06;4.18;;;1.73;;
24483;SDS011;12643;51.620;7.548;2023-03-31T07:51:34;4.50;;;1.50;;
24483;SDS011;12643;51.620;7.548;2023-03-31T07:54:03;6.50;;;1.85;;
24483;SDS011;12643;51.620;7.548;2023-03-31T07:56:31;5.93;;;1.70;;
24483;SDS011;12643;51.620;7.548;2023-03-31T07:58:59;6.38;;;1.83;;
24483;SDS011;12643;51.620;7.548;2023-03-31T08:01:27;5.07;;;1.50;;
24483;SDS011;12643;51.620;7.548;2023-03-31T08:03:56;3.40;;;1.40;;
24483;SDS011;12643;51.620;7.548;2023-03-31T08:06:25;3.60;;;1.40;;
24483;SDS011;12643;51.620;7.548;2023-03-31T08:08:55;5.18;;;1.25;;
24483;SDS011;12643;51.620;7.548;2023-03-31T08:11:23;4.13;;;1.48;;
24483;SDS011;12643;51.620;7.548;2023-03-31T08:13:51;8.73;;;2.10;;
24483;SDS011;12643;51.620;7.548;2023-03-31T08:16:19;3.72;;;1.48;;
24483;SDS011;12643;51.620;7.548;2023-03-31T08:18:47;4.68;;;1.40;;
24483;SDS011;12643;51.620;7.548;2023-03-31T08:21:17;4.75;;;1.27;;
24483;SDS011;12643;51.620;7.548;2023-03-31T08:23:45;4.18;;;1.00;;
24483;SDS011;12643;51.620;7.548;2023-03-31T08:26:14;4.13;;;1.58;;
24483;SDS011;12643;51.620;7.548;2023-03-31T08:28:43;5.63;;;1.67;;
24483;SDS011;12643;51.620;7.548;2023-03-31T08:31:13;7.53;;;1.17;;
24483;SDS011;12643;51.620;7.548;2023-03-31T08:33:43;4.63;;;1.58;;
24483;SDS011;12643;51.620;7.548;2023-03-31T08:36:11;7.05;;;2.15;;
24483;SDS011;12643;51.620;7.548;2023-03-31T08:38:41;7.20;;;1.75;;
24483;SDS011;12643;51.620;7.548;2023-03-31T08:41:17;4.45;;;1.70;;
24483;SDS011;12643;51.620;7.548;2023-03-31T08:43:54;4.55;;;1.83;;
24483;SDS011;12643;51.620;7.548;2023-03-31T08:46:23;5.18;;;1.70;;
24483;SDS011;12643;51.620;7.548;2023-03-31T08:48:53;6.03;;;1.88;;
24483;SDS011;12643;51.620;7.548;2023-03-31T08:51:23;3.83;;;1.65;;
24483;SDS011;12643;51.620;7.548;2023-03-31T08:53:56;4.97;;;1.50;;
24483;SDS011;12643;51.620;7.548;2023-03-31T08:56:28;5.75;;;1.77;;
24483;SDS011;12643;51.620;7.548;2023-03-31T08:59:03;4.35;;;1.33;;
24483;SDS011;12643;51.620;7.548;2023-03-31T09:01:35;4.18;;;1.30;;
24483;SDS011;12643;51.620;7.548;2023-03-31T09:04:15;6.90;;;1.40;;
24483;SDS011;12643;51.620;7.548;2023-03-31T09:06:55;8.80;;;1.88;;
24483;SDS011;12643;51.620;7.548;2023-03-31T09:09:33;3.28;;;1.10;;
24483;SDS011;12643;51.620;7.548;2023-03-31T09:12:09;4.05;;;1.40;;
24483;SDS011;12643;51.620;7.548;2023-03-31T09:14:41;5.97;;;1.70;;
24483;SDS011;12643;51.620;7.548;2023-03-31T09:17:17;1.88;;;1.00;;
24483;SDS011;12643;51.620;7.548;2023-03-31T09:19:50;5.00;;;1.20;;
24483;SDS011;12643;51.620;7.548;2023-03-31T09:22:24;5.63;;;1.20;;
24483;SDS011;12643;51.620;7.548;2023-03-31T09:25:02;3.25;;;1.17;;
24483;SDS011;12643;51.620;7.548;2023-03-31T09:27:36;4.97;;;1.50;;
24483;SDS011;12643;51.620;7.548;2023-03-31T09:30:09;6.30;;;1.40;;
24483;SDS011;12643;51.620;7.548;2023-03-31T09:32:41;9.40;;;2.22;;
24483;SDS011;12643;51.620;7.548;2023-03-31T09:35:13;2.92;;;1.38;;
24483;SDS011;12643;51.620;7.548;2023-03-31T09:37:47;3.55;;;1.33;;
24483;SDS011;12643;51.620;7.548;2023-03-31T09:40:18;4.65;;;1.58;;
24483;SDS011;12643;51.620;7.548;2023-03-31T09:42:50;6.50;;;1.50;;
24483;SDS011;12643;51.620;7.548;2023-03-31T09:45:21;2.92;;;1.20;;
24483;SDS011;12643;51.620;7.548;2023-03-31T09:47:50;4.55;;;1.35;;
24483;SDS011;12643;51.620;7.548;2023-03-31T09:50:20;5.40;;;1.40;;
24483;SDS011;12643;51.620;7.548;2023-03-31T09:52:50;8.00;;;1.50;;
24483;SDS011;12643;51.620;7.548;2023-03-31T09:55:21;5.10;;;1.60;;
24483;SDS011;12643;51.620;7.548;2023-03-31T09:57:52;5.30;;;1.60;;
24483;SDS011;12643;51.620;7.548;2023-03-31T10:00:21;5.63;;;1.58;;
24483;SDS011;12643;51.620;7.548;2023-03-31T10:02:50;4.50;;;1.70;;
24483;SDS011;12643;51.620;7.548;2023-03-31T10:05:27;5.88;;;1.80;;
24483;SDS011;12643;51.620;7.548;2023-03-31T10:08:11;5.85;;;1.70;;
24483;SDS011;12643;51.620;7.548;2023-03-31T10:10:53;6.65;;;2.03;;
24483;SDS011;12643;51.620;7.548;2023-03-31T10:13:22;8.02;;;2.45;;
24483;SDS011;12643;51.620;7.548;2023-03-31T10:15:52;12.88;;;2.05;;
24483;SDS011;12643;51.620;7.548;2023-03-31T10:18:22;6.68;;;1.92;;
24483;SDS011;12643;51.620;7.548;2023-03-31T10:20:59;6.53;;;2.15;;
24483;SDS011;12643;51.620;7.548;2023-03-31T10:23:30;4.70;;;2.15;;
24483;SDS011;12643;51.620;7.548;2023-03-31T10:26:01;6.45;;;1.77;;
24483;SDS011;12643;51.620;7.548;2023-03-31T10:28:31;8.95;;;2.00;;
24483;SDS011;12643;51.620;7.548;2023-03-31T10:31:00;6.65;;;1.90;;
24483;SDS011;12643;51.620;7.548;2023-03-31T10:33:30;5.47;;;2.03;;
24483;SDS011;12643;51.620;7.548;2023-03-31T10:35:59;7.32;;;2.00;;
24483;SDS011;12643;51.620;7.548;2023-03-31T10:38:33;6.55;;;1.77;;
24483;SDS011;12643;51.620;7.548;2023-03-31T10:41:06;8.10;;;1.88;;
24483;SDS011;12643;51.620;7.548;2023-03-31T10:43:36;7.63;;;1.98;;
24483;SDS011;12643;51.620;7.548;2023-03-31T10:46:06;9.10;;;2.88;;
24483;SDS011;12643;51.620;7.548;2023-03-31T10:48:35;6.38;;;1.80;;
24483;SDS011;12643;51.620;7.548;2023-03-31T10:51:10;9.63;;;2.63;;
24483;SDS011;12643;51.620;7.548;2023-03-31T10:53:42;11.35;;;2.40;;
24483;SDS011;12643;51.620;7.548;2023-03-31T10:59:06;4.53;;;1.83;;
24483;SDS011;12643;51.620;7.548;2023-03-31T11:01:49;10.55;;;2.45;;
24483;SDS011;12643;51.620;7.548;2023-03-31T11:04:43;7.85;;;2.30;;
24483;SDS011;12643;51.620;7.548;2023-03-31T11:07:31;6.88;;;2.08;;
24483;SDS011;12643;51.620;7.548;2023-03-31T11:10:20;9.20;;;2.30;;
24483;SDS011;12643;51.620;7.548;2023-03-31T11:13:04;9.10;;;3.00;;
24483;SDS011;12643;51.620;7.548;2023-03-31T11:18:44;14.68;;;3.30;;
24483;SDS011;12643;51.620;7.548;2023-03-31T11:21:23;19.83;;;3.60;;
24483;SDS011;12643;51.620;7.548;2023-03-31T11:24:01;13.65;;;3.72;;
24483;SDS011;12643;51.620;7.548;2023-03-31T11:26:38;13.70;;;4.38;;
24483;SDS011;12643;51.620;7.548;2023-03-31T11:29:16;13.27;;;4.10;;
24483;SDS011;12643;51.620;7.548;2023-03-31T11:32:11;10.05;;;3.05;;
24483;SDS011;12643;51.620;7.548;2023-03-31T11:34:57;12.05;;;3.65;;
24483;SDS011;12643;51.620;7.548;2023-03-31T11:37:54;15.68;;;4.13;;
24483;SDS011;12643;51.620;7.548;2023-03-31T11:40:42;13.88;;;4.10;;
24483;SDS011;12643;51.620;7.548;2023-03-31T11:43:21;13.48;;;3.42;;
24483;SDS011;12643;51.620;7.548;2023-03-31T11:45:59;17.73;;;3.83;;
24483;SDS011;12643;51.620;7.548;2023-03-31T11:48:32;15.90;;;3.92;;
24483;SDS011;12643;51.620;7.548;2023-03-31T11:51:06;12.85;;;5.10;;
24483;SDS011;12643;51.620;7.548;2023-03-31T11:53:39;12.02;;;3.42;;
24483;SDS011;12643;51.620;7.548;2023-03-31T11:56:10;13.00;;;2.80;;
24483;SDS011;12643;51.620;7.548;2023-03-31T11:58:40;16.40;;;3.40;;
24483;SDS011;12643;51.620;7.548;2023-03-31T12:01:15;13.98;;;3.80;;
24483;SDS011;12643;51.620;7.548;2023-03-31T12:03:51;10.40;;;3.15;;
24483;SDS011;12643;51.620;7.548;2023-03-31T12:06:24;13.35;;;2.78;;
24483;SDS011;12643;51.620;7.548;2023-03-31T12:09:04;12.85;;;3.40;;
24483;SDS011;12643;51.620;7.548;2023-03-31T12:11:39;10.30;;;2.92;;
24483;SDS011;12643;51.620;7.548;2023-03-31T12:14:24;8.85;;;2.17;;
24483;SDS011;12643;51.620;7.548;2023-03-31T12:19:44;13.98;;;2.40;;
24483;SDS011;12643;51.620;7.548;2023-03-31T12:22:16;7.88;;;2.20;;
24483;SDS011;12643;51.620;7.548;2023-03-31T12:24:48;8.10;;;2.08;;
24483;SDS011;12643;51.620;7.548;2023-03-31T12:27:17;5.35;;;2.03;;
24483;SDS011;12643;51.620;7.548;2023-03-31T12:29:58;5.32;;;2.13;;
24483;SDS011;12643;51.620;7.548;2023-03-31T12:32:39;5.97;;;1.45;;
24483;SDS011;12643;51.620;7.548;2023-03-31T12:35:12;7.25;;;1.75;;
24483;SDS011;12643;51.620;7.548;2023-03-31T12:37:52;5.72;;;1.58;;
24483;SDS011;12643;51.620;7.548;2023-03-31T12:40:36;4.75;;;1.48;;
24483;SDS011;12643;51.620;7.548;2023-03-31T12:43:15;5.65;;;1.95;;
24483;SDS011;12643;51.620;7.548;2023-03-31T12:46:21;5.05;;;1.70;;
24483;SDS011;12643;51.620;7.548;2023-03-31T12:49:08;4.88;;;1.27;;
24483;SDS011;12643;51.620;7.548;2023-03-31T12:51:57;7.00;;;1.65;;
24483;SDS011;12643;51.620;7.548;2023-03-31T12:54:34;9.27;;;1.65;;
24483;SDS011;12643;51.620;7.548;2023-03-31T12:57:23;6.32;;;1.85;;
24483;SDS011;12643;51.620;7.548;2023-03-31T13:02:49;5.68;;;1.58;;
24483;SDS011;12643;51.620;7.548;2023-03-31T13:05:50;8.07;;;1.40;;
24483;SDS011;12643;51.620;7.548;2023-03-31T13:11:21;6.72;;;2.20;;
24483;SDS011;12643;51.620;7.548;2023-03-31T13:14:02;10.05;;;2.55;;
24483;SDS011;12643;51.620;7.548;2023-03-31T13:16:33;9.07;;;2.05;;
24483;SDS011;12643;51.620;7.548;2023-03-31T13:19:02;8.88;;;1.75;;
24483;SDS011;12643;51.620;7.548;2023-03-31T13:21:34;12.35;;;2.47;;
24483;SDS011;12643;51.620;7.548;2023-03-31T13:24:20;14.43;;;2.15;;
24483;SDS011;12643;51.620;7.548;2023-03-31T13:26:52;4.95;;;1.90;;
24483;SDS011;12643;51.620;7.548;2023-03-31T13:29:22;12.05;;;2.35;;
24483;SDS011;12643;51.620;7.548;2023-03-31T13:32:05;8.05;;;2.40;;
24483;SDS011;12643;51.620;7.548;2023-03-31T13:34:52;10.23;;;2.00;;
24483;SDS011;12643;51.620;7.548;2023-03-31T13:37:31;8.38;;;2.65;;
24483;SDS011;12643;51.620;7.548;2023-03-31T13:40:19;9.48;;;2.17;;
24483;SDS011;12643;51.620;7.548;2023-03-31T13:43:06;10.00;;;2.58;;
24483;SDS011;12643;51.620;7.548;2023-03-31T13:49:32;10.98;;;2.50;;
24483;SDS011;12643;51.620;7.548;2023-03-31T13:52:18;10.10;;;2.00;;
24483;SDS011;12643;51.620;7.548;2023-03-31T13:57:59;11.35;;;2.78;;
24483;SDS011;12643;51.620;7.548;2023-03-31T14:00:50;7.93;;;1.88;;
24483;SDS011;12643;51.620;7.548;2023-03-31T14:03:36;9.43;;;2.33;;
24483;SDS011;12643;51.620;7.548;2023-03-31T14:06:17;13.07;;;2.60;;
24483;SDS011;12643;51.620;7.548;2023-03-31T14:08:52;9.02;;;2.20;;
24483;SDS011;12643;51.620;7.548;2023-03-31T14:11:27;11.80;;;2.92;;
24483;SDS011;12643;51.620;7.548;2023-03-31T14:14:03;7.32;;;2.17;;
24483;SDS011;12643;51.620;7.548;2023-03-31T14:16:34;12.88;;;2.75;;
24483;SDS011;12643;51.620;7.548;2023-03-31T14:19:20;13.52;;;2.95;;
24483;SDS011;12643;51.620;7.548;2023-03-31T14:22:15;11.15;;;2.97;;
24483;SDS011;12643;51.620;7.548;2023-03-31T14:24:49;8.70;;;2.67;;
24483;SDS011;12643;51.620;7.548;2023-03-31T14:27:29;12.95;;;3.50;;
24483;SDS011;12643;51.620;7.548;2023-03-31T14:30:10;12.07;;;2.42;;
24483;SDS011;12643;51.620;7.548;2023-03-31T14:32:46;13.07;;;2.67;;
24483;SDS011;12643;51.620;7.548;2023-03-31T14:35:25;12.30;;;2.65;;
24483;SDS011;12643;51.620;7.548;2023-03-31T14:37:58;8.25;;;1.95;;
24483;SDS011;12643;51.620;7.548;2023-03-31T14:40:29;16.80;;;3.17;;
24483;SDS011;12643;51.620;7.548;2023-03-31T14:43:01;14.18;;;2.53;;
24483;SDS011;12643;51.620;7.548;2023-03-31T14:45:29;11.45;;;2.25;;
24483;SDS011;12643;51.620;7.548;2023-03-31T14:48:01;13.18;;;3.08;;
24483;SDS011;12643;51.620;7.548;2023-03-31T14:50:40;14.30;;;2.80;;
24483;SDS011;12643;51.620;7.548;2023-03-31T14:53:14;8.85;;;2.25;;
24483;SDS011;12643;51.620;7.548;2023-03-31T14:55:42;11.02;;;2.50;;
24483;SDS011;12643;51.620;7.548;2023-03-31T14:58:15;9.77;;;2.10;;
24483;SDS011;12643;51.620;7.548;2023-03-31T15:00:50;13.82;;;2.45;;
24483;SDS011;12643;51.620;7.548;2023-03-31T15:03:21;10.32;;;2.97;;
24483;SDS011;12643;51.620;7.548;2023-03-31T15:05:55;15.48;;;2.42;;
24483;SDS011;12643;51.620;7.548;2023-03-31T15:08:25;10.98;;;2.40;;
24483;SDS011;12643;51.620;7.548;2023-03-31T15:10:55;11.45;;;3.08;;
24483;SDS011;12643;51.620;7.548;2023-03-31T15:13:27;8.95;;;2.17;;
24483;SDS011;12643;51.620;7.548;2023-03-31T15:18:48;7.90;;;1.98;;
24483;SDS011;12643;51.620;7.548;2023-03-31T15:21:26;10.32;;;2.67;;
24483;SDS011;12643;51.620;7.548;2023-03-31T15:23:58;9.27;;;2.30;;
24483;SDS011;12643;51.620;7.548;2023-03-31T15:26:30;9.40;;;2.60;;
24483;SDS011;12643;51.620;7.548;2023-03-31T15:29:03;11.88;;;2.30;;
24483;SDS011;12643;51.620;7.548;2023-03-31T15:31:34;6.55;;;2.10;;
24483;SDS011;12643;51.620;7.548;2023-03-31T15:34:13;10.77;;;2.60;;
24483;SDS011;12643;51.620;7.548;2023-03-31T15:36:46;13.38;;;2.17;;
24483;SDS011;12643;51.620;7.548;2023-03-31T15:39:15;7.18;;;2.17;;
24483;SDS011;12643;51.620;7.548;2023-03-31T15:41:45;7.70;;;1.88;;
24483;SDS011;12643;51.620;7.548;2023-03-31T15:44:34;7.33;;;2.60;;
24483;SDS011;12643;51.620;7.548;2023-03-31T15:49:54;10.00;;;2.45;;
24483;SDS011;12643;51.620;7.548;2023-03-31T15:52:28;6.85;;;2.92;;
24483;SDS011;12643;51.620;7.548;2023-03-31T15:54:59;8.52;;;2.78;;
24483;SDS011;12643;51.620;7.548;2023-03-31T15:57:31;10.57;;;2.58;;
24483;SDS011;12643;51.620;7.548;2023-03-31T16:00:02;11.52;;;2.83;;
24483;SDS011;12643;51.620;7.548;2023-03-31T16:02:37;6.85;;;2.33;;